createdAt,value
2019-03-04T00:00:41.587Z,-1.26
2019-03-04T00:03:14.761Z,-1.29
2019-03-04T00:05:47.994Z,-1.25
2019-03-04T00:08:19.119Z,-1.30
2019-03-04T00:10:51.312Z,-1.27
2019-03-04T00:13:25.336Z,-1.26
2019-03-04T00:15:56.395Z,-1.29
2019-03-04T00:18:27.589Z,-1.32
2019-03-04T00:20:58.726Z,-1.35
2019-03-04T00:23:29.832Z,-1.33
2019-03-04T00:26:00.978Z,-1.34
2019-03-04T00:28:32.248Z,-1.35
2019-03-04T00:31:03.455Z,-1.38
2019-03-04T00:33:34.687Z,-1.40
2019-03-04T00:36:05.835Z,-1.35
2019-03-04T00:38:37.207Z,-1.30
2019-03-04T00:41:08.364Z,-1.30
2019-03-04T00:43:39.694Z,-1.24
2019-03-04T00:46:10.985Z,-1.27
2019-03-04T00:48:42.304Z,-1.25
2019-03-04T00:51:13.826Z,-1.28
2019-03-04T00:53:44.988Z,-1.24
2019-03-04T00:56:16.233Z,-1.25
2019-03-04T00:58:47.835Z,-1.24
2019-03-04T01:01:19.063Z,-1.19
2019-03-04T01:03:50.484Z,-1.21
2019-03-04T01:06:21.676Z,-1.21
2019-03-04T01:08:52.914Z,-1.21
2019-03-04T01:11:24.092Z,-1.26
2019-03-04T01:13:55.218Z,-1.35
2019-03-04T01:16:26.460Z,-1.40
2019-03-04T01:18:57.531Z,-1.38
2019-03-04T01:21:28.777Z,-1.51
2019-03-04T01:24:00.020Z,-1.45
2019-03-04T01:26:31.223Z,-1.52
2019-03-04T01:29:04.541Z,-1.57
2019-03-04T01:31:35.756Z,-1.61
2019-03-04T01:34:07.011Z,-1.63
2019-03-04T01:36:38.304Z,-1.58
2019-03-04T01:39:09.747Z,-1.60
2019-03-04T01:41:41.061Z,-1.65
2019-03-04T01:44:12.347Z,-1.68
2019-03-04T01:46:43.702Z,-1.71
2019-03-04T01:49:14.834Z,-1.63
2019-03-04T01:51:46.173Z,-1.70
2019-03-04T01:54:17.374Z,-1.70
2019-03-04T01:56:48.788Z,-1.67
2019-03-04T01:59:20.244Z,-1.67
2019-03-04T02:01:51.419Z,-1.66
2019-03-04T02:04:22.662Z,-1.66
2019-03-04T02:06:56.231Z,-1.64
2019-03-04T02:09:27.711Z,-1.61
2019-03-04T02:11:58.878Z,-1.61
2019-03-04T02:14:30.060Z,-1.54
2019-03-04T02:17:01.078Z,-1.54
2019-03-04T02:19:32.329Z,-1.52
2019-03-04T02:22:03.461Z,-1.45
2019-03-04T02:24:35.385Z,-1.41
2019-03-04T02:27:06.695Z,-1.35
2019-03-04T02:29:38.079Z,-1.34
2019-03-04T02:32:09.534Z,-1.34
2019-03-04T02:34:40.831Z,-1.36
2019-03-04T02:37:12.068Z,-1.36
2019-03-04T02:39:43.393Z,-1.29
2019-03-04T02:42:14.555Z,-1.26
2019-03-04T02:44:45.629Z,-1.21
2019-03-04T02:47:16.776Z,-1.22
2019-03-04T02:49:48.004Z,-1.14
2019-03-04T02:52:19.503Z,-1.11
2019-03-04T02:54:53.494Z,-1.09
2019-03-04T02:57:24.649Z,-1.04
2019-03-04T02:59:55.790Z,-1.01
2019-03-04T03:02:27.049Z,-0.97
2019-03-04T03:04:58.132Z,-0.90
2019-03-04T03:07:29.409Z,-0.88
2019-03-04T03:10:00.600Z,-0.88
2019-03-04T03:12:31.727Z,-0.92
2019-03-04T03:15:03.023Z,-0.92
2019-03-04T03:17:39.607Z,-0.87
2019-03-04T03:20:17.212Z,-0.90
2019-03-04T03:22:48.396Z,-0.89
2019-03-04T03:25:19.629Z,-0.89
2019-03-04T03:27:50.668Z,-0.93
2019-03-04T03:30:23.417Z,-0.91
2019-03-04T03:32:54.567Z,-0.85
2019-03-04T03:35:25.771Z,-0.87
2019-03-04T03:37:57.022Z,-0.83
2019-03-04T03:40:28.913Z,-0.83
2019-03-04T03:43:00.176Z,-0.79
2019-03-04T03:45:31.365Z,-0.80
2019-03-04T03:48:02.543Z,-0.82
2019-03-04T03:50:33.765Z,-0.84
2019-03-04T03:53:06.600Z,-0.84
2019-03-04T03:55:37.634Z,-0.85
2019-03-04T03:58:10.033Z,-0.90
2019-03-04T04:00:41.401Z,-0.89
2019-03-04T04:03:12.838Z,-0.89
2019-03-04T04:05:44.016Z,-0.93
2019-03-04T04:08:15.134Z,-0.91
2019-03-04T04:10:46.277Z,-0.93
2019-03-04T04:13:17.530Z,-0.94
2019-03-04T04:15:48.896Z,-0.95
2019-03-04T04:18:19.949Z,-0.95
2019-03-04T04:20:51.201Z,-0.89
2019-03-04T04:23:22.410Z,-0.89
2019-03-04T04:25:53.627Z,-0.88
2019-03-04T04:28:24.773Z,-0.90
2019-03-04T04:30:56.080Z,-0.93
2019-03-04T04:33:27.249Z,-0.85
2019-03-04T04:35:58.408Z,-0.85
2019-03-04T04:38:29.461Z,-0.88
2019-03-04T04:41:00.606Z,-0.85
2019-03-04T04:43:31.711Z,-0.85
2019-03-04T04:46:02.938Z,-0.85
2019-03-04T04:48:34.175Z,-0.85
2019-03-04T04:51:05.620Z,-0.83
2019-03-04T04:53:36.936Z,-0.79
2019-03-04T04:56:08.224Z,-0.76
2019-03-04T04:58:39.422Z,-0.71
2019-03-04T05:01:11.884Z,-0.65
2019-03-04T05:03:43.368Z,-0.68
2019-03-04T05:06:14.782Z,-0.62
2019-03-04T05:08:49.034Z,-0.62
2019-03-04T05:11:20.418Z,-0.53
2019-03-04T05:13:51.577Z,-0.47
2019-03-04T05:16:24.918Z,-0.44
2019-03-04T05:18:58.027Z,-0.33
2019-03-04T05:21:29.242Z,-0.23
2019-03-04T05:24:00.455Z,-0.18
2019-03-04T05:26:31.778Z,-0.06
2019-03-04T05:29:02.963Z,0.04
2019-03-04T05:31:34.268Z,0.10
2019-03-04T05:34:05.476Z,0.09
2019-03-04T05:36:36.750Z,0.21
2019-03-04T05:39:07.975Z,0.24
2019-03-04T05:41:46.129Z,0.33
2019-03-04T05:44:17.452Z,0.36
2019-03-04T05:46:48.734Z,0.39
2019-03-04T05:49:22.095Z,0.47
2019-03-04T05:51:54.468Z,0.50
2019-03-04T05:54:25.649Z,0.62
2019-03-04T05:56:56.826Z,0.61
2019-03-04T05:59:27.874Z,0.63
2019-03-04T06:02:05.590Z,0.67
2019-03-04T06:04:36.826Z,0.75
2019-03-04T06:07:09.623Z,0.79
2019-03-04T06:09:40.777Z,0.79
2019-03-04T06:12:11.815Z,0.84
2019-03-04T06:14:42.889Z,0.93
2019-03-04T06:17:14.138Z,0.98
2019-03-04T06:19:45.265Z,1.04
2019-03-04T06:22:18.124Z,1.06
2019-03-04T06:24:49.545Z,1.17
2019-03-04T06:27:20.909Z,1.21
2019-03-04T06:29:52.373Z,1.25
2019-03-04T06:32:23.720Z,1.29
2019-03-04T06:34:55.138Z,1.31
2019-03-04T06:37:26.448Z,1.32
2019-03-04T06:39:58.481Z,1.34
2019-03-04T06:42:29.693Z,1.29
2019-03-04T06:45:01.126Z,1.33
2019-03-04T06:47:32.477Z,1.36
2019-03-04T06:50:04.748Z,1.38
2019-03-04T06:52:36.191Z,1.45
2019-03-04T06:55:16.970Z,1.60
2019-03-04T06:57:58.085Z,1.70
2019-03-04T07:00:33.536Z,1.91
2019-03-04T07:03:05.135Z,2.10
2019-03-04T07:06:19.642Z,2.19
2019-03-04T07:08:54.304Z,2.28
2019-03-04T07:11:25.473Z,2.45
2019-03-04T07:13:56.669Z,2.50
2019-03-04T07:16:27.879Z,2.59
2019-03-04T07:18:58.993Z,2.72
2019-03-04T07:21:30.591Z,2.83
2019-03-04T07:24:02.617Z,2.91
2019-03-04T07:26:34.185Z,3.00
2019-03-04T07:29:05.316Z,3.04
2019-03-04T07:31:37.638Z,3.09
2019-03-04T07:34:09.108Z,3.15
2019-03-04T07:36:40.322Z,3.23
2019-03-04T07:39:12.174Z,3.33
2019-03-04T07:41:43.354Z,3.40
2019-03-04T07:44:15.050Z,3.44
2019-03-04T07:46:46.487Z,3.55
2019-03-04T07:49:17.712Z,3.57
2019-03-04T07:51:49.136Z,3.68
2019-03-04T07:54:20.367Z,3.71
2019-03-04T07:56:51.475Z,3.78
2019-03-04T07:59:22.756Z,3.83
2019-03-04T08:01:53.902Z,3.93
2019-03-04T08:04:25.145Z,4.04
2019-03-04T08:07:23.254Z,4.18
2019-03-04T08:10:00.761Z,4.25
2019-03-04T08:12:53.420Z,4.35
2019-03-04T08:15:24.890Z,4.39
2019-03-04T08:17:56.092Z,4.45
2019-03-04T08:20:27.277Z,4.46
2019-03-04T08:22:58.767Z,4.46
2019-03-04T08:25:29.988Z,4.38
2019-03-04T08:28:01.225Z,4.43
2019-03-04T08:30:33.465Z,4.55
2019-03-04T08:33:04.922Z,4.58
2019-03-04T08:35:36.093Z,4.65
2019-03-04T08:38:07.448Z,4.72
2019-03-04T08:40:38.834Z,4.79
2019-03-04T08:43:10.093Z,4.87
2019-03-04T08:45:41.463Z,4.96
2019-03-04T08:48:12.538Z,5.10
2019-03-04T08:50:43.860Z,5.22
2019-03-04T08:53:15.168Z,5.17
2019-03-04T08:55:46.245Z,5.34
2019-03-04T08:58:18.784Z,5.36
2019-03-04T09:00:50.273Z,5.37
2019-03-04T09:03:21.569Z,5.47
2019-03-04T09:05:52.824Z,5.59
2019-03-04T09:08:23.952Z,5.72
2019-03-04T09:10:55.237Z,5.74
2019-03-04T09:13:26.689Z,5.86
2019-03-04T09:15:57.985Z,5.88
2019-03-04T09:18:32.066Z,5.91
2019-03-04T09:21:03.561Z,5.98
2019-03-04T09:23:34.899Z,6.10
2019-03-04T09:26:09.018Z,6.16
2019-03-04T09:28:40.926Z,6.12
2019-03-04T09:31:12.192Z,6.05
2019-03-04T09:33:43.519Z,6.02
2019-03-04T09:36:14.677Z,6.17
2019-03-04T09:38:45.937Z,6.30
2019-03-04T09:41:18.321Z,6.32
2019-03-04T09:43:49.589Z,6.21
2019-03-04T09:46:20.855Z,6.26
2019-03-04T09:48:52.153Z,6.32
2019-03-04T09:51:24.862Z,6.42
2019-03-04T09:53:56.136Z,6.47
2019-03-04T09:56:27.380Z,6.58
2019-03-04T09:58:59.108Z,6.64
2019-03-04T10:01:36.534Z,6.67
2019-03-04T10:04:16.918Z,6.67
2019-03-04T10:06:53.981Z,6.71
2019-03-04T10:09:46.722Z,6.76
2019-03-04T10:12:45.418Z,6.77
2019-03-04T10:15:36.273Z,6.83
2019-03-04T10:18:30.411Z,6.73
2019-03-04T10:21:07.911Z,6.75
2019-03-04T10:23:52.503Z,6.73
2019-03-04T10:26:44.468Z,6.71
2019-03-04T10:29:47.694Z,6.69
2019-03-04T10:32:40.858Z,6.70
2019-03-04T10:35:33.522Z,6.73
2019-03-04T10:38:22.541Z,6.77
2019-03-04T10:40:58.718Z,6.78
2019-03-04T10:43:36.062Z,6.76
2019-03-04T10:46:32.418Z,6.85
2019-03-04T10:49:03.605Z,6.92
2019-03-04T10:51:34.888Z,7.06
2019-03-04T10:54:06.195Z,7.15
2019-03-04T10:56:37.407Z,7.21
2019-03-04T10:59:08.643Z,7.27
2019-03-04T11:01:39.957Z,7.31
2019-03-04T11:04:12.303Z,7.38
2019-03-04T11:06:43.596Z,7.50
2019-03-04T11:09:14.815Z,7.47
2019-03-04T11:11:46.460Z,7.45
2019-03-04T11:14:17.840Z,7.54
2019-03-04T11:16:54.909Z,7.53
2019-03-04T11:19:28.565Z,7.56
2019-03-04T11:22:00.257Z,7.67
2019-03-04T11:24:31.837Z,7.65
2019-03-04T11:27:03.034Z,7.66
2019-03-04T11:29:36.576Z,7.63
2019-03-04T11:32:09.109Z,7.62
2019-03-04T11:34:40.289Z,7.60
2019-03-04T11:37:11.519Z,7.56
2019-03-04T11:39:47.678Z,7.52
2019-03-04T11:42:20.719Z,7.53
2019-03-04T11:44:53.276Z,7.60
2019-03-04T11:47:28.072Z,7.60
2019-03-04T11:50:08.009Z,7.60
2019-03-04T11:52:40.602Z,7.59
2019-03-04T11:55:17.019Z,7.64
2019-03-04T11:57:48.298Z,7.63
2019-03-04T12:00:28.972Z,7.60
2019-03-04T12:03:00.525Z,7.63
2019-03-04T12:05:32.686Z,7.63
2019-03-04T12:08:04.076Z,7.63
2019-03-04T12:10:37.324Z,7.66
2019-03-04T12:13:09.618Z,7.65
2019-03-04T12:15:41.692Z,7.65
2019-03-04T12:18:13.016Z,7.72
2019-03-04T12:20:46.540Z,7.70
2019-03-04T12:23:27.764Z,7.73
2019-03-04T12:26:01.090Z,7.66
2019-03-04T12:28:33.866Z,7.61
2019-03-04T12:31:12.700Z,7.58
2019-03-04T12:33:53.537Z,7.54
2019-03-04T12:36:25.026Z,7.49
2019-03-04T12:39:00.063Z,7.52
2019-03-04T12:41:31.583Z,7.49
2019-03-04T12:44:04.151Z,7.50
2019-03-04T12:46:37.802Z,7.54
2019-03-04T12:49:08.955Z,7.58
2019-03-04T12:51:40.240Z,7.59
2019-03-04T12:54:20.261Z,7.61
2019-03-04T12:56:53.019Z,7.59
2019-03-04T12:59:24.979Z,7.62
2019-03-04T13:01:56.303Z,7.64
2019-03-04T13:04:27.633Z,7.65
2019-03-04T13:06:58.967Z,7.62
2019-03-04T13:09:30.334Z,7.58
2019-03-04T13:12:02.131Z,7.57
2019-03-04T13:14:34.544Z,7.57
2019-03-04T13:17:05.836Z,7.45
2019-03-04T13:19:38.849Z,7.42
2019-03-04T13:22:10.620Z,7.35
2019-03-04T13:24:42.899Z,7.27
2019-03-04T13:27:23.371Z,7.11
2019-03-04T13:29:47.532Z,7.01
2019-03-04T13:32:21.168Z,6.90
2019-03-04T13:34:54.377Z,6.80
2019-03-04T13:37:25.715Z,6.75
2019-03-04T13:39:58.589Z,6.70
2019-03-04T13:42:29.938Z,6.67
2019-03-04T13:45:01.149Z,6.58
2019-03-04T13:47:32.600Z,6.47
2019-03-04T13:50:09.427Z,6.45
2019-03-04T13:52:40.913Z,6.47
2019-03-04T13:55:12.286Z,6.42
2019-03-04T13:57:43.575Z,6.53
2019-03-04T14:00:17.521Z,6.53
2019-03-04T14:02:52.389Z,6.51
2019-03-04T14:05:24.662Z,6.60
2019-03-04T14:07:57.238Z,6.58
2019-03-04T14:10:43.985Z,6.61
2019-03-04T14:13:15.290Z,6.60
2019-03-04T14:15:54.854Z,6.71
2019-03-04T14:18:26.100Z,6.69
2019-03-04T14:20:57.774Z,6.72
2019-03-04T14:23:28.948Z,6.77
2019-03-04T14:26:00.425Z,6.83
2019-03-04T14:28:31.588Z,6.88
2019-03-04T14:31:08.331Z,6.88
2019-03-04T14:33:42.215Z,6.95
2019-03-04T14:36:13.234Z,7.01
2019-03-04T14:38:44.422Z,7.02
2019-03-04T14:41:15.664Z,7.04
2019-03-04T14:43:47.002Z,6.93
2019-03-04T14:46:21.517Z,6.93
2019-03-04T14:48:52.796Z,6.86
2019-03-04T14:51:25.171Z,6.87
2019-03-04T14:53:56.691Z,6.88
2019-03-04T14:56:28.015Z,6.88
2019-03-04T14:59:10.552Z,6.89
2019-03-04T15:01:34.250Z,6.92
2019-03-04T15:04:05.516Z,6.90
2019-03-04T15:06:38.740Z,6.81
2019-03-04T15:09:11.454Z,6.77
2019-03-04T15:11:42.656Z,6.74
2019-03-04T15:14:13.888Z,6.74
2019-03-04T15:16:44.985Z,6.69
2019-03-04T15:19:16.212Z,6.66
2019-03-04T15:21:49.154Z,6.54
2019-03-04T15:24:20.610Z,6.54
2019-03-04T15:26:51.732Z,6.52
2019-03-04T15:29:23.014Z,6.55
2019-03-04T15:31:54.490Z,6.54
2019-03-04T15:34:25.855Z,6.55
2019-03-04T15:36:57.382Z,6.55
2019-03-04T15:39:29.151Z,6.59
2019-03-04T15:42:00.501Z,6.61
2019-03-04T15:44:31.900Z,6.62
2019-03-04T15:47:05.809Z,6.65
2019-03-04T15:49:37.363Z,6.60
2019-03-04T15:52:08.625Z,6.58
2019-03-04T15:54:40.176Z,6.58
2019-03-04T15:57:12.642Z,6.54
2019-03-04T15:59:43.960Z,6.58
2019-03-04T16:02:15.720Z,6.55
2019-03-04T16:04:48.098Z,6.52
2019-03-04T16:07:19.642Z,6.57
2019-03-04T16:09:53.285Z,6.44
2019-03-04T16:12:25.940Z,6.47
2019-03-04T16:14:57.324Z,6.44
2019-03-04T16:17:29.547Z,6.44
2019-03-04T16:20:00.814Z,6.42
2019-03-04T16:22:32.026Z,6.35
2019-03-04T16:25:03.356Z,6.36
2019-03-04T16:27:36.707Z,6.44
2019-03-04T16:30:17.608Z,6.47
2019-03-04T16:32:48.771Z,6.45
2019-03-04T16:35:20.203Z,6.41
2019-03-04T16:37:52.430Z,6.41
2019-03-04T16:40:24.520Z,6.45
2019-03-04T16:42:55.723Z,6.44
2019-03-04T16:45:26.881Z,6.47
2019-03-04T16:47:58.380Z,6.44
2019-03-04T16:50:32.727Z,6.42
2019-03-04T16:53:07.025Z,6.46
2019-03-04T16:55:39.309Z,6.39
2019-03-04T16:58:10.729Z,6.43
2019-03-04T17:00:42.115Z,6.37
2019-03-04T17:03:14.388Z,6.39
2019-03-04T17:05:46.005Z,6.43
2019-03-04T17:08:17.227Z,6.41
2019-03-04T17:10:48.562Z,6.36
2019-03-04T17:13:19.899Z,6.35
2019-03-04T17:15:52.286Z,6.32
2019-03-04T17:18:23.620Z,6.34
2019-03-04T17:20:55.575Z,6.30
2019-03-04T17:23:27.339Z,6.27
2019-03-04T17:26:00.730Z,6.26
2019-03-04T17:28:35.402Z,6.28
2019-03-04T17:31:08.573Z,6.22
2019-03-04T17:33:39.716Z,6.15
2019-03-04T17:36:11.008Z,6.16
2019-03-04T17:38:42.224Z,6.13
2019-03-04T17:41:13.460Z,6.16
2019-03-04T17:43:44.689Z,6.12
2019-03-04T17:46:16.032Z,6.14
2019-03-04T17:48:48.329Z,6.09
2019-03-04T17:51:20.997Z,6.13
2019-03-04T17:53:52.325Z,6.15
2019-03-04T17:56:23.617Z,6.09
2019-03-04T17:58:55.013Z,6.07
2019-03-04T18:01:26.510Z,6.00
2019-03-04T18:03:57.781Z,6.00
2019-03-04T18:06:28.919Z,5.91
2019-03-04T18:09:00.296Z,5.87
2019-03-04T18:11:32.275Z,5.87
2019-03-04T18:14:04.101Z,5.81
2019-03-04T18:16:35.408Z,5.78
2019-03-04T18:19:06.846Z,5.69
2019-03-04T18:21:38.179Z,5.67
2019-03-04T18:24:09.536Z,5.71
2019-03-04T18:26:43.270Z,5.68
2019-03-04T18:29:36.896Z,5.66
2019-03-04T18:32:17.193Z,5.64
2019-03-04T18:35:09.909Z,5.65
2019-03-04T18:37:53.503Z,5.59
2019-03-04T18:40:46.523Z,5.58
2019-03-04T18:43:40.114Z,5.51
2019-03-04T18:46:29.619Z,5.48
2019-03-04T18:49:01.767Z,5.46
2019-03-04T18:51:33.145Z,5.41
2019-03-04T18:54:06.509Z,5.35
2019-03-04T18:56:37.808Z,5.38
2019-03-04T18:59:09.349Z,5.31
2019-03-04T19:01:44.146Z,5.31
2019-03-04T19:04:15.636Z,5.27
2019-03-04T19:06:46.971Z,5.25
2019-03-04T19:09:19.469Z,5.23
2019-03-04T19:11:50.794Z,5.22
2019-03-04T19:14:22.173Z,5.17
2019-03-04T19:16:53.346Z,5.12
2019-03-04T19:19:24.635Z,5.09
2019-03-04T19:21:56.082Z,5.01
2019-03-04T19:24:28.381Z,5.04
2019-03-04T19:26:59.563Z,5.03
2019-03-04T19:29:32.499Z,4.95
2019-03-04T19:32:04.028Z,4.91
2019-03-04T19:34:35.222Z,4.90
2019-03-04T19:37:07.508Z,4.88
2019-03-04T19:39:38.998Z,4.85
2019-03-04T19:42:11.543Z,4.87
2019-03-04T19:44:43.815Z,4.85
2019-03-04T19:47:14.950Z,4.78
2019-03-04T19:49:46.413Z,4.79
2019-03-04T19:52:17.586Z,4.80
2019-03-04T19:54:54.186Z,4.68
2019-03-04T19:57:26.625Z,4.67
2019-03-04T19:59:57.974Z,4.62
2019-03-04T20:02:32.327Z,4.60
2019-03-04T20:05:04.314Z,4.55
2019-03-04T20:07:37.754Z,4.51
2019-03-04T20:10:14.553Z,4.47
2019-03-04T20:12:47.164Z,4.48
2019-03-04T20:15:27.539Z,4.44
2019-03-04T20:18:02.148Z,4.46
2019-03-04T20:20:35.579Z,4.42
2019-03-04T20:23:09.049Z,4.42
2019-03-04T20:25:40.568Z,4.44
2019-03-04T20:28:12.016Z,4.38
2019-03-04T20:30:44.421Z,4.34
2019-03-04T20:33:15.699Z,4.29
2019-03-04T20:35:48.472Z,4.29
2019-03-04T20:38:27.130Z,4.28
2019-03-04T20:40:59.496Z,4.26
2019-03-04T20:43:30.624Z,4.17
2019-03-04T20:46:04.755Z,4.18
2019-03-04T20:48:37.361Z,4.16
2019-03-04T20:51:08.846Z,4.16
2019-03-04T20:53:40.113Z,4.10
2019-03-04T20:56:11.492Z,4.10
2019-03-04T20:58:42.790Z,4.08
2019-03-04T21:01:14.825Z,4.06
2019-03-04T21:03:46.424Z,4.03
2019-03-04T21:06:17.990Z,4.02
2019-03-04T21:08:50.272Z,4.04
2019-03-04T21:11:21.560Z,3.99
2019-03-04T21:13:54.000Z,3.95
2019-03-04T21:16:26.916Z,3.95
2019-03-04T21:19:00.775Z,3.91
2019-03-04T21:21:32.754Z,3.92
2019-03-04T21:24:04.535Z,3.89
2019-03-04T21:26:36.001Z,3.83
2019-03-04T21:29:31.101Z,3.87
2019-03-04T21:32:12.188Z,3.82
2019-03-04T21:35:02.041Z,3.81
2019-03-04T21:37:36.977Z,3.78
2019-03-04T21:40:17.461Z,3.76
2019-03-04T21:42:58.570Z,3.69
2019-03-04T21:45:39.315Z,3.68
2019-03-04T21:48:16.415Z,3.68
2019-03-04T21:51:06.870Z,3.65
2019-03-04T21:53:47.473Z,3.63
2019-03-04T21:56:27.771Z,3.55
2019-03-04T21:59:00.121Z,3.60
2019-03-04T22:01:35.804Z,3.57
2019-03-04T22:04:07.443Z,3.54
2019-03-04T22:06:39.379Z,3.53
2019-03-04T22:09:12.331Z,3.51
2019-03-04T22:11:43.717Z,3.46
2019-03-04T22:14:14.955Z,3.45
2019-03-04T22:16:46.313Z,3.47
2019-03-04T22:19:18.734Z,3.45
2019-03-04T22:21:51.217Z,3.45
2019-03-04T22:24:22.468Z,3.50
2019-03-04T22:26:53.531Z,3.47
2019-03-04T22:29:24.964Z,3.43
2019-03-04T22:32:00.796Z,3.46
2019-03-04T22:34:32.177Z,3.46
2019-03-04T22:37:03.588Z,3.48
2019-03-04T22:39:34.846Z,3.41
2019-03-04T22:42:06.300Z,3.43
2019-03-04T22:44:37.686Z,3.40
2019-03-04T22:47:09.012Z,3.36
2019-03-04T22:49:44.236Z,3.31
2019-03-04T22:52:15.602Z,3.29
2019-03-04T22:54:46.993Z,3.27
2019-03-04T22:57:18.223Z,3.32
2019-03-04T22:59:49.506Z,3.29
2019-03-04T23:02:20.793Z,3.26
2019-03-04T23:04:52.065Z,3.23
2019-03-04T23:07:23.419Z,3.21
2019-03-04T23:10:07.556Z,3.16
2019-03-04T23:12:42.109Z,3.20
2019-03-04T23:15:17.088Z,3.21
2019-03-04T23:17:48.395Z,3.17
2019-03-04T23:20:23.118Z,3.13
2019-03-04T23:22:56.045Z,3.15
2019-03-04T23:25:28.920Z,3.16
2019-03-04T23:28:00.340Z,3.16
2019-03-04T23:30:32.906Z,3.17
2019-03-04T23:33:04.597Z,3.16
2019-03-04T23:35:35.738Z,3.14
2019-03-04T23:38:07.018Z,3.15
2019-03-04T23:40:38.134Z,3.15
2019-03-04T23:43:09.447Z,3.17
2019-03-04T23:45:40.585Z,3.17
2019-03-04T23:48:11.882Z,3.19
2019-03-04T23:50:42.976Z,3.25
2019-03-04T23:53:14.225Z,3.19
2019-03-04T23:55:45.585Z,3.24
2019-03-04T23:58:16.722Z,3.26
